Time;durP1;ratioP1;P1;durP2;ratioP2;P2;SDS_P1;SDS_P2;PMS_P1;PMS_P2;Temp;Humidity;BMP_temperature;BMP_pressure;BME280_temperature;BME280_humidity;BME280_pressure;Samples;Min_cycle;Max_cycle;Signal;HPM_P1;HPM_P2
2023/10/06 00:00:41;;;;;;;9.15;7.68;;;;;;;22.29;44.89;95715.31;6008267;28;108975;-61
2023/10/06 00:03:45;;;;;;;8.60;7.70;;;;;;;22.28;44.74;95713.75;6018642;28;108975;-60
2023/10/06 00:06:50;;;;;;;8.73;7.93;;;;;;;22.27;44.45;95720.16;6015158;28;109002;-60
2023/10/06 00:09:54;;;;;;;10.50;9.40;;;;;;;22.23;44.82;95721.81;6017128;29;108884;-58
2023/10/06 00:12:59;;;;;;;9.00;8.10;;;;;;;22.23;44.46;95716.50;6010241;28;109823;-59
2023/10/06 00:16:05;;;;;;;8.98;7.97;;;;;;;22.20;44.41;95711.75;6017427;28;108979;-59
2023/10/06 00:19:25;;;;;;;9.00;8.05;;;;;;;22.18;44.35;95719.22;6017983;29;108946;-60
2023/10/06 00:22:30;;;;;;;9.10;8.20;;;;;;;22.16;44.94;95716.06;6007293;28;108939;-60
2023/10/06 00:25:35;;;;;;;8.35;7.20;;;;;;;22.15;44.58;95711.81;6017384;28;109016;-60
2023/10/06 00:28:39;;;;;;;8.83;7.60;;;;;;;22.16;44.72;95708.06;6017940;28;109107;-60
2023/10/06 00:31:47;;;;;;;8.80;7.15;;;;;;;22.12;44.12;95699.84;6017333;28;109018;-60
2023/10/06 00:34:52;;;;;;;7.78;6.97;;;;;;;22.10;44.67;95696.69;5997837;28;109156;-60
2023/10/06 00:38:04;;;;;;;7.72;6.85;;;;;;;22.08;44.36;95696.97;6017207;28;108924;-60
2023/10/06 00:41:07;;;;;;;9.10;7.30;;;;;;;22.10;44.37;95699.34;6018724;28;108763;-60
2023/10/06 00:44:11;;;;;;;8.30;7.28;;;;;;;22.10;44.31;95708.13;6012304;28;109011;-60
2023/10/06 00:47:15;;;;;;;8.30;7.30;;;;;;;22.10;44.58;95702.81;6011481;28;108904;-61
2023/10/06 00:50:22;;;;;;;8.45;7.65;;;;;;;22.10;44.53;95696.69;6017432;28;108911;-61
2023/10/06 00:53:31;;;;;;;8.25;7.20;;;;;;;22.09;44.41;95703.88;6018118;29;109186;-62
2023/10/06 00:56:35;;;;;;;8.93;7.28;;;;;;;22.10;44.38;95700.13;6006266;28;108919;-60
2023/10/06 00:59:39;;;;;;;8.85;6.93;;;;;;;22.06;44.19;95693.03;6017224;28;108865;-61
2023/10/06 01:02:44;;;;;;;8.32;7.30;;;;;;;22.09;44.04;95706.56;6016980;28;109002;-60
2023/10/06 01:05:48;;;;;;;8.43;6.90;;;;;;;22.05;44.28;95700.22;6017506;29;108926;-61
2023/10/06 01:09:06;;;;;;;9.40;7.17;;;;;;;22.05;44.25;95699.44;6006398;28;109217;-61
2023/10/06 01:12:13;;;;;;;8.80;7.00;;;;;;;22.01;44.14;95701.88;6016557;28;108917;-61
2023/10/06 01:15:19;;;;;;;9.05;7.13;;;;;;;22.03;43.99;95707.72;6016449;28;108697;-60
2023/10/06 01:18:24;;;;;;;7.95;7.07;;;;;;;22.03;43.95;95706.94;6011356;28;108974;-60
2023/10/06 01:21:29;;;;;;;7.80;7.00;;;;;;;22.01;43.62;95701.88;6011164;28;109183;-60
2023/10/06 01:24:34;;;;;;;10.70;7.20;;;;;;;21.99;43.97;95701.34;6016383;29;108895;-60
2023/10/06 01:27:38;;;;;;;7.85;7.05;;;;;;;21.99;44.15;95706.69;6017163;29;108966;-60
2023/10/06 01:30:42;;;;;;;7.95;7.15;;;;;;;22.00;43.60;95699.50;6005550;28;108904;-61
2023/10/06 01:33:45;;;;;;;9.30;6.65;;;;;;;21.97;44.04;95700.06;6015929;28;108990;-60
2023/10/06 01:36:52;;;;;;;8.20;7.10;;;;;;;21.97;44.13;95703.53;6016448;28;109138;-60
2023/10/06 01:39:57;;;;;;;7.53;6.80;;;;;;;21.96;43.80;95701.16;6016075;28;109046;-60
2023/10/06 01:43:00;;;;;;;8.40;7.60;;;;;;;21.91;43.85;95704.69;6006078;28;108982;-60
2023/10/06 01:46:07;;;;;;;9.50;8.50;;;;;;;21.93;43.92;95707.84;6016780;28;108646;-60
2023/10/06 01:49:11;;;;;;;8.98;7.90;;;;;;;21.95;43.64;95705.69;6014992;28;110444;-60
2023/10/06 01:52:19;;;;;;;9.88;8.88;;;;;;;21.98;44.15;95712.31;6012117;28;108956;-59
2023/10/06 01:55:25;;;;;;;10.55;8.70;;;;;;;21.98;43.90;95715.78;6010176;29;108993;-60
2023/10/06 01:58:28;;;;;;;9.60;8.70;;;;;;;21.97;43.77;95708.06;6015933;28;108824;-60
2023/10/06 02:01:32;;;;;;;10.98;8.88;;;;;;;21.93;44.37;95707.84;6016723;28;109288;-60
2023/10/06 02:04:44;;;;;;;9.97;7.77;;;;;;;21.95;44.22;95716.34;6005503;28;108949;-61
2023/10/06 02:07:48;;;;;;;8.70;7.80;;;;;;;21.91;43.79;95710.03;6016373;28;109005;-59
2023/10/06 02:10:55;;;;;;;10.73;8.20;;;;;;;22.01;43.49;95731.22;6013957;29;109016;-60
2023/10/06 02:13:58;;;;;;;9.97;7.60;;;;;;;21.97;43.73;95732.84;6015705;29;108850;-60
2023/10/06 02:17:05;;;;;;;9.37;7.57;;;;;;;21.93;43.92;95739.81;6004513;28;109232;-60
2023/10/06 02:20:14;;;;;;;9.15;7.78;;;;;;;21.87;43.80;95727.66;6014647;28;109874;-60
2023/10/06 02:23:17;;;;;;;8.07;7.27;;;;;;;21.91;43.72;95730.53;6015172;29;108973;-57
2023/10/06 02:26:23;;;;;;;8.35;7.25;;;;;;;21.91;43.89;95736.66;6011109;29;109368;-58
2023/10/06 02:29:26;;;;;;;7.63;6.93;;;;;;;21.87;43.35;95733.00;6008747;28;109592;-57
2023/10/06 02:32:30;;;;;;;7.90;7.10;;;;;;;21.97;43.65;95743.50;6013974;28;109366;-57
2023/10/06 02:35:44;;;;;;;8.10;7.30;;;;;;;21.79;43.71;95739.72;6015387;29;109051;-58
2023/10/06 02:38:48;;;;;;;8.40;7.60;;;;;;;21.57;44.01;95742.13;6011467;28;109172;-58
2023/10/06 02:41:57;;;;;;;10.90;7.30;;;;;;;21.60;44.30;95738.88;6017386;28;108892;-57
2023/10/06 02:45:00;;;;;;;9.70;7.03;;;;;;;21.48;44.09;95743.81;6017091;28;108993;-57
2023/10/06 02:48:15;;;;;;;9.02;8.13;;;;;;;21.35;44.46;95736.53;6018091;28;108989;-57
2023/10/06 02:51:28;;;;;;;9.02;8.20;;;;;;;21.35;44.57;95742.66;6007507;28;108904;-57
2023/10/06 02:54:32;;;;;;;8.43;7.53;;;;;;;21.39;44.34;95743.66;6028262;28;109397;-57
2023/10/06 02:57:38;;;;;;;8.90;8.00;;;;;;;21.50;44.13;95741.66;6018750;28;108946;-58
2023/10/06 03:00:43;;;;;;;9.25;7.90;;;;;;;21.55;44.16;95740.84;6013721;28;108856;-57
2023/10/06 03:03:51;;;;;;;9.48;8.10;;;;;;;21.50;44.35;95744.31;6013715;28;108930;-57
2023/10/06 03:06:57;;;;;;;8.50;7.70;;;;;;;21.59;44.31;95741.84;6018070;28;108926;-57
2023/10/06 03:10:01;;;;;;;10.07;7.70;;;;;;;21.66;43.81;95742.28;6018677;29;109018;-58
2023/10/06 03:13:08;;;;;;;9.23;8.30;;;;;;;21.69;43.86;95739.84;6007796;28;108920;-58
2023/10/06 03:16:11;;;;;;;11.05;9.95;;;;;;;21.71;44.05;95742.22;6017986;28;109096;-56
2023/10/06 03:19:16;;;;;;;19.38;17.40;;;;;;;21.70;44.47;95744.09;6018141;28;108905;-57
2023/10/06 03:22:20;;;;;;;15.20;13.70;;;;;;;21.73;44.29;95735.53;6019128;29;108898;-56
2023/10/06 03:25:27;;;;;;;15.10;13.60;;;;;;;21.88;43.89;95742.56;6006241;28;109556;-58
2023/10/06 03:28:36;;;;;;;17.60;16.10;;;;;;;22.07;44.28;95739.91;6027908;28;108966;-59
2023/10/06 03:31:45;;;;;;;26.13;24.03;;;;;;;22.15;44.79;95741.13;6018609;29;108826;-58
2023/10/06 03:34:50;;;;;;;22.90;20.90;;;;;;;22.18;44.39;95740.53;6013434;28;109113;-58
2023/10/06 03:38:07;;;;;;;19.55;17.85;;;;;;;22.22;44.79;95739.69;6012792;28;109085;-58
2023/10/06 03:41:18;;;;;;;23.52;21.52;;;;;;;22.23;44.71;95749.28;6015559;28;109157;-58
2023/10/06 03:44:26;;;;;;;24.13;22.02;;;;;;;22.22;45.58;95744.25;6006398;29;109054;-58
2023/10/06 03:47:30;;;;;;;23.52;21.52;;;;;;;22.20;44.73;95741.06;6006238;28;108817;-58
2023/10/06 03:50:33;;;;;;;21.97;19.97;;;;;;;22.18;44.84;95736.03;6017707;29;109021;-58
2023/10/06 03:53:36;;;;;;;18.80;17.00;;;;;;;22.17;44.44;95739.75;6018522;29;109241;-58
2023/10/06 03:56:39;;;;;;;20.30;18.33;;;;;;;22.14;44.83;95744.88;6017472;28;109126;-59
2023/10/06 03:59:45;;;;;;;18.95;17.15;;;;;;;22.18;44.82;95751.22;6004168;28;109052;-59
2023/10/06 04:02:48;;;;;;;17.17;15.57;;;;;;;22.19;44.46;95747.47;6023207;28;108929;-58
2023/10/06 04:05:52;;;;;;;16.17;14.68;;;;;;;22.20;45.04;95741.06;6018139;28;109016;-58
2023/10/06 04:08:57;;;;;;;14.77;13.38;;;;;;;22.28;44.39;95743.88;6012210;29;109433;-59
2023/10/06 04:12:02;;;;;;;15.75;13.40;;;;;;;22.31;44.78;95742.50;6013444;28;109899;-59
2023/10/06 04:15:09;;;;;;;13.70;12.40;;;;;;;22.35;44.20;95741.63;6017169;29;108921;-57
2023/10/06 04:18:16;;;;;;;13.60;11.77;;;;;;;22.37;44.08;95744.00;5997976;28;108934;-60
2023/10/06 04:21:20;;;;;;;15.85;13.45;;;;;;;22.24;44.54;95745.53;6005770;28;109001;-58
2023/10/06 04:24:23;;;;;;;14.50;12.93;;;;;;;22.07;44.91;95746.03;6017564;28;109046;-57
2023/10/06 04:27:26;;;;;;;15.93;13.53;;;;;;;22.01;45.27;95752.53;6017785;28;109004;-57
2023/10/06 04:30:34;;;;;;;17.17;13.80;;;;;;;21.99;44.75;95753.88;6016583;29;108984;-56
2023/10/06 04:33:37;;;;;;;17.45;15.38;;;;;;;21.97;45.07;95764.81;6005429;28;108932;-56
2023/10/06 04:36:42;;;;;;;15.82;14.23;;;;;;;21.94;44.78;95765.41;6017407;28;108908;-57
2023/10/06 04:39:46;;;;;;;17.27;15.68;;;;;;;21.89;44.63;95768.13;6016382;28;108899;-56
2023/10/06 04:42:49;;;;;;;16.48;14.80;;;;;;;21.90;45.15;95774.25;6012183;28;108995;-60
2023/10/06 04:45:55;;;;;;;15.20;13.57;;;;;;;21.84;44.97;95772.72;6011243;28;108899;-61
2023/10/06 04:48:58;;;;;;;16.40;14.80;;;;;;;21.83;44.66;95768.47;6017115;28;108864;-61
2023/10/06 04:52:01;;;;;;;14.03;12.53;;;;;;;21.79;44.46;95770.88;6017157;28;108914;-61
2023/10/06 04:55:05;;;;;;;14.65;13.15;;;;;;;21.78;44.28;95777.28;6006309;29;109028;-60
2023/10/06 04:58:10;;;;;;;14.18;12.50;;;;;;;21.78;44.96;95778.09;6015357;29;109266;-60
2023/10/06 05:01:16;;;;;;;13.50;12.10;;;;;;;21.80;44.87;95783.91;6016517;28;108903;-61
2023/10/06 05:04:19;;;;;;;15.57;13.85;;;;;;;21.80;44.82;95797.25;6016690;28;109000;-58
2023/10/06 05:07:24;;;;;;;19.42;17.67;;;;;;;21.77;44.83;95800.47;6006284;29;109035;-60
2023/10/06 05:10:27;;;;;;;25.88;23.40;;;;;;;21.81;45.00;95803.34;6016137;29;108906;-61
2023/10/06 05:13:31;;;;;;;24.80;22.60;;;;;;;21.80;45.18;95804.44;6016819;28;108939;-61
2023/10/06 05:16:35;;;;;;;21.50;19.20;;;;;;;21.78;44.88;95802.06;6015550;28;109208;-58
2023/10/06 05:19:38;;;;;;;20.47;18.37;;;;;;;21.79;45.19;95802.84;6006311;29;109020;-60
2023/10/06 05:22:42;;;;;;;19.75;17.70;;;;;;;21.81;44.58;95801.50;6016507;28;108970;-61
2023/10/06 05:25:45;;;;;;;20.10;18.00;;;;;;;21.80;45.19;95802.56;6016548;29;109034;-61
2023/10/06 05:28:50;;;;;;;21.23;17.65;;;;;;;21.83;44.85;95811.88;6006059;29;108969;-59
2023/10/06 05:31:55;;;;;;;19.17;16.83;;;;;;;21.82;44.70;95810.31;6001700;28;108969;-61
2023/10/06 05:34:58;;;;;;;21.08;16.98;;;;;;;21.82;44.74;95818.28;5996376;29;109325;-61
2023/10/06 05:38:03;;;;;;;18.02;16.13;;;;;;;21.82;45.12;95823.63;6016005;29;109414;-60
2023/10/06 05:41:11;;;;;;;20.90;17.20;;;;;;;21.89;44.68;95821.44;6005483;28;109362;-61
2023/10/06 05:44:15;;;;;;;19.70;16.50;;;;;;;21.90;44.99;95816.88;6016499;28;108911;-61
2023/10/06 05:47:21;;;;;;;18.33;16.10;;;;;;;21.90;45.03;95820.34;6016298;29;108859;-61
2023/10/06 05:50:35;;;;;;;19.60;15.43;;;;;;;21.92;44.59;95826.19;6015575;28;108951;-61
2023/10/06 05:53:40;;;;;;;20.45;18.35;;;;;;;21.95;45.14;95830.16;6006144;29;110254;-57
2023/10/06 05:56:45;;;;;;;22.02;19.63;;;;;;;21.96;44.52;95832.53;6016219;29;108913;-57
2023/10/06 05:59:48;;;;;;;22.80;19.65;;;;;;;21.99;45.13;95839.16;6015015;28;109080;-57
2023/10/06 06:02:58;;;;;;;23.38;20.98;;;;;;;21.99;44.85;95839.94;6006840;29;108881;-56
2023/10/06 06:06:09;;;;;;;18.23;16.42;;;;;;;22.02;44.42;95852.72;6015218;29;108933;-57
2023/10/06 06:09:14;;;;;;;16.63;14.07;;;;;;;22.01;44.71;95845.81;6015249;29;108865;-57
2023/10/06 06:12:21;;;;;;;14.80;13.40;;;;;;;22.00;44.41;95846.06;6020398;29;108825;-57
2023/10/06 06:15:25;;;;;;;17.67;13.23;;;;;;;22.05;44.66;95848.69;6009466;28;109284;-57
2023/10/06 06:18:29;;;;;;;19.08;12.70;;;;;;;22.06;44.64;95851.06;6018740;29;108955;-57
2023/10/06 06:21:34;;;;;;;18.10;14.93;;;;;;;22.11;44.52;95852.88;6020153;29;109207;-57
2023/10/06 06:24:38;;;;;;;19.95;15.60;;;;;;;22.17;44.35;95853.59;6019905;28;109375;-56
2023/10/06 06:27:42;;;;;;;17.20;15.50;;;;;;;22.26;43.94;95850.00;6009120;28;110334;-56
2023/10/06 06:30:47;;;;;;;16.40;14.80;;;;;;;22.34;43.99;95857.34;6012554;29;109000;-56
2023/10/06 06:33:56;;;;;;;17.35;15.55;;;;;;;22.51;44.10;95862.19;6019053;28;108914;-56
2023/10/06 06:37:01;;;;;;;17.70;15.80;;;;;;;22.69;44.49;95864.13;6009715;29;108971;-56
2023/10/06 06:40:06;;;;;;;19.38;16.83;;;;;;;22.81;43.92;95853.00;6018265;28;108951;-56
2023/10/06 06:43:09;;;;;;;17.88;16.08;;;;;;;22.94;43.98;95859.47;6019694;28;108925;-55
2023/10/06 06:46:16;;;;;;;17.30;15.20;;;;;;;23.02;43.74;95869.50;6019691;29;109152;-55
2023/10/06 06:49:21;;;;;;;15.88;14.27;;;;;;;23.10;44.06;95876.06;6007873;28;109521;-55
2023/10/06 06:52:24;;;;;;;15.50;13.90;;;;;;;23.17;44.13;95869.25;6019841;29;108991;-56
2023/10/06 06:55:28;;;;;;;15.35;13.48;;;;;;;23.18;43.97;95878.84;6019427;29;109153;-57
2023/10/06 06:58:32;;;;;;;14.80;13.20;;;;;;;23.18;44.20;95878.03;6018472;29;108921;-57
2023/10/06 07:01:38;;;;;;;15.80;14.10;;;;;;;23.17;44.01;95871.91;6009011;29;109282;-56
2023/10/06 07:04:44;;;;;;;15.23;13.73;;;;;;;23.23;43.71;95872.63;6019547;29;108813;-57
2023/10/06 07:07:50;;;;;;;15.13;13.73;;;;;;;23.24;43.86;95875.00;6018703;28;109211;-58
2023/10/06 07:10:54;;;;;;;15.45;13.68;;;;;;;23.28;44.02;95870.66;6012248;28;108962;-62
2023/10/06 07:13:57;;;;;;;13.77;12.40;;;;;;;23.21;43.59;95854.25;6016299;28;108969;-57
2023/10/06 07:17:01;;;;;;;13.63;12.23;;;;;;;23.34;43.84;95870.59;6019140;29;108874;-57
2023/10/06 07:20:09;;;;;;;12.73;11.40;;;;;;;23.33;44.11;95866.34;6017491;29;108997;-58
2023/10/06 07:23:12;;;;;;;12.57;11.38;;;;;;;23.35;43.62;95869.50;6008082;28;109010;-58
2023/10/06 07:26:16;;;;;;;12.18;10.93;;;;;;;23.36;43.84;95861.22;6019109;29;108923;-57
2023/10/06 07:29:20;;;;;;;11.43;10.33;;;;;;;23.37;43.51;95860.16;6018283;28;108928;-58
2023/10/06 07:32:24;;;;;;;10.20;9.20;;;;;;;23.38;43.88;95859.06;6019061;29;109046;-57
2023/10/06 07:35:36;;;;;;;10.57;9.20;;;;;;;23.40;43.61;95861.44;6007410;28;109168;-57
2023/10/06 07:38:41;;;;;;;9.88;8.88;;;;;;;23.44;43.65;95863.22;6017529;28;108988;-57
2023/10/06 07:41:44;;;;;;;9.95;8.95;;;;;;;23.46;43.33;95860.25;6018473;28;108863;-57
2023/10/06 07:44:48;;;;;;;9.47;8.47;;;;;;;23.47;43.71;95856.50;6013325;28;108939;-58
2023/10/06 07:47:53;;;;;;;9.10;8.20;;;;;;;23.59;43.82;95854.13;6012785;28;109281;-58
2023/10/06 07:51:04;;;;;;;8.70;7.90;;;;;;;23.65;43.52;95855.63;6017216;28;108992;-57
2023/10/06 07:54:08;;;;;;;8.80;7.77;;;;;;;23.64;43.45;95843.34;6018149;28;109173;-57
2023/10/06 07:57:12;;;;;;;8.48;7.55;;;;;;;23.72;43.30;95856.03;6006568;28;108996;-56
2023/10/06 08:00:18;;;;;;;8.60;7.60;;;;;;;23.73;43.46;95852.28;6017144;28;109172;-57
2023/10/06 08:03:21;;;;;;;7.97;7.18;;;;;;;23.74;43.30;95855.75;6018199;28;108890;-57
2023/10/06 08:06:27;;;;;;;8.57;7.53;;;;;;;23.67;43.41;95852.66;6018094;28;108971;-56
2023/10/06 08:09:32;;;;;;;8.17;7.20;;;;;;;23.60;43.67;95855.72;6006436;28;109007;-57
2023/10/06 08:12:35;;;;;;;7.40;6.70;;;;;;;23.56;43.55;95850.19;6018131;28;109010;-58
2023/10/06 08:15:44;;;;;;;7.70;6.90;;;;;;;23.56;43.39;95860.88;6017768;28;109007;-57
2023/10/06 08:18:48;;;;;;;8.80;7.10;;;;;;;23.53;43.29;95853.44;6011699;28;108956;-57
2023/10/06 08:21:55;;;;;;;7.70;7.00;;;;;;;23.50;43.52;95854.00;6011638;28;108901;-57
2023/10/06 08:24:58;;;;;;;7.57;6.88;;;;;;;23.49;43.41;95851.63;6017809;28;108947;-57
2023/10/06 08:28:04;;;;;;;8.23;7.40;;;;;;;23.46;43.42;95850.34;6016387;28;109963;-57
2023/10/06 08:31:15;;;;;;;8.82;7.90;;;;;;;23.46;43.67;95862.91;6004549;29;108901;-57
2023/10/06 08:34:18;;;;;;;8.30;7.50;;;;;;;23.45;43.38;95856.00;6016398;28;109012;-57
2023/10/06 08:37:23;;;;;;;8.27;7.47;;;;;;;23.45;43.31;95862.13;6016802;28;108959;-57
2023/10/06 08:40:26;;;;;;;8.15;7.35;;;;;;;23.46;43.40;95860.25;6016086;28;108984;-57
2023/10/06 08:43:31;;;;;;;8.40;7.50;;;;;;;23.45;43.47;95853.31;6007082;28;109243;-57
2023/10/06 08:46:34;;;;;;;8.60;7.70;;;;;;;23.47;43.15;95861.84;6016742;28;109006;-57
2023/10/06 08:49:39;;;;;;;8.98;8.18;;;;;;;23.46;43.23;95861.03;6016083;28;108927;-58
2023/10/06 08:52:45;;;;;;;9.75;8.75;;;;;;;23.46;43.79;95858.38;6011734;29;108904;-57
2023/10/06 08:55:49;;;;;;;9.60;8.70;;;;;;;23.48;43.21;95856.19;6012490;28;109086;-58
2023/10/06 08:58:53;;;;;;;9.17;8.27;;;;;;;23.51;43.62;95857.47;6015935;29;109023;-57
2023/10/06 09:01:56;;;;;;;10.17;9.17;;;;;;;23.53;43.31;95858.00;6016791;28;108872;-57
2023/10/06 09:04:59;;;;;;;9.10;8.20;;;;;;;23.58;43.06;95856.03;6005926;28;109040;-57
2023/10/06 09:08:07;;;;;;;9.48;8.57;;;;;;;23.54;43.23;95855.03;6015930;28;108964;-57
2023/10/06 09:11:11;;;;;;;8.50;7.70;;;;;;;23.54;43.39;95859.59;6016596;28;108926;-56
2023/10/06 09:14:16;;;;;;;9.33;8.43;;;;;;;23.52;43.40;95843.03;6017582;28;109054;-57
2023/10/06 09:17:31;;;;;;;8.82;8.02;;;;;;;23.52;43.37;95853.72;6006564;28;109072;-57
2023/10/06 09:20:37;;;;;;;9.60;7.40;;;;;;;23.50;43.27;95850.56;6015866;28;108837;-57
2023/10/06 09:23:41;;;;;;;9.80;8.90;;;;;;;23.49;43.46;95847.09;6015798;28;109172;-57
2023/10/06 09:26:46;;;;;;;8.90;8.10;;;;;;;23.49;43.61;95844.41;6011571;28;108974;-58
2023/10/06 09:29:58;;;;;;;9.33;8.43;;;;;;;23.50;43.36;95840.66;6011105;29;110357;-57
2023/10/06 09:33:03;;;;;;;8.77;7.97;;;;;;;23.49;43.64;95835.59;6016520;28;109218;-58
2023/10/06 09:36:07;;;;;;;9.02;8.23;;;;;;;23.46;43.29;95844.22;6015701;28;108913;-58
2023/10/06 09:39:19;;;;;;;8.00;7.30;;;;;;;23.47;43.43;95832.44;6005925;29;110358;-58
2023/10/06 09:42:29;;;;;;;8.70;7.90;;;;;;;23.45;43.20;95826.59;6016226;28;109095;-58
2023/10/06 09:45:32;;;;;;;8.25;7.47;;;;;;;23.43;43.71;95832.25;6016079;28;108975;-58
2023/10/06 09:48:38;;;;;;;8.20;7.40;;;;;;;23.44;43.38;95825.03;6018963;28;109031;-58
2023/10/06 09:51:41;;;;;;;8.32;7.63;;;;;;;23.42;43.49;95824.53;6005372;28;108981;-58
2023/10/06 09:54:46;;;;;;;8.40;7.60;;;;;;;23.36;43.91;95825.72;6015333;28;109130;-57
2023/10/06 09:57:50;;;;;;;8.90;8.00;;;;;;;23.37;43.51;95830.78;6015524;29;109195;-58
2023/10/06 10:00:54;;;;;;;9.10;8.20;;;;;;;23.36;43.79;95820.38;6010459;28;109130;-57
2023/10/06 10:03:58;;;;;;;8.32;7.60;;;;;;;23.35;43.67;95826.78;6009640;28;109138;-57
2023/10/06 10:07:03;;;;;;;8.40;7.60;;;;;;;23.35;43.67;95816.09;6015686;28;109032;-57
2023/10/06 10:10:10;;;;;;;8.40;7.70;;;;;;;23.33;43.69;95815.59;6013835;28;108931;-57
2023/10/06 10:13:49;;;;;;;8.18;7.38;;;;;;;23.30;43.61;95823.13;6005721;28;110962;-57
2023/10/06 10:17:07;;;;;;;8.48;7.57;;;;;;;23.30;43.76;95814.31;6015920;28;109064;-57
2023/10/06 10:20:13;;;;;;;8.30;7.43;;;;;;;23.30;43.40;95811.66;6014059;28;109272;-57
2023/10/06 10:23:16;;;;;;;7.68;7.07;;;;;;;23.27;43.40;95807.66;6015510;28;108840;-59
2023/10/06 10:26:25;;;;;;;8.20;7.50;;;;;;;23.25;43.73;95809.03;6006033;28;109075;-61
2023/10/06 10:29:32;;;;;;;8.57;7.68;;;;;;;23.26;43.62;95795.41;6014171;28;108899;-61
2023/10/06 10:32:35;;;;;;;8.30;7.50;;;;;;;23.27;43.35;95786.28;6015186;28;108950;-60
2023/10/06 10:36:28;;;;;;;8.23;7.43;;;;;;;23.28;43.18;95790.53;6004741;28;108942;-59
2023/10/06 10:39:41;;;;;;;8.53;7.40;;;;;;;23.26;43.46;95781.25;5919624;29;109506;-61
2023/10/06 10:42:45;;;;;;;8.57;7.40;;;;;;;23.26;43.67;95779.38;6001357;29;108884;-61
2023/10/06 10:45:50;;;;;;;7.75;6.95;;;;;;;23.24;43.04;95773.53;6015389;28;108955;-62
2023/10/06 10:48:55;;;;;;;8.13;7.32;;;;;;;23.27;43.24;95772.16;6002748;28;109265;-62
2023/10/06 10:52:04;;;;;;;8.10;7.40;;;;;;;23.25;43.17;95775.13;6015007;28;109051;-61
2023/10/06 10:55:12;;;;;;;8.50;7.70;;;;;;;23.23;43.23;95769.28;6015498;29;108859;-61
2023/10/06 10:58:54;;;;;;;7.40;6.70;;;;;;;23.25;43.31;95774.31;6005576;28;108882;-60
2023/10/06 11:02:07;;;;;;;7.80;7.20;;;;;;;23.15;43.34;95753.13;6018474;29;108871;-61
2023/10/06 11:05:11;;;;;;;7.53;6.82;;;;;;;23.22;43.00;95758.91;6019433;28;108990;-61
2023/10/06 11:08:15;;;;;;;8.07;7.28;;;;;;;23.22;43.08;95754.34;6017379;28;109264;-62
2023/10/06 11:11:19;;;;;;;8.33;7.53;;;;;;;23.21;43.07;95754.66;6008791;28;109116;-61
2023/10/06 11:14:25;;;;;;;8.27;7.57;;;;;;;23.20;42.85;95750.41;6018783;28;109023;-62
2023/10/06 11:17:29;;;;;;;7.60;7.00;;;;;;;23.17;43.16;95741.06;6018973;28;108943;-61
2023/10/06 11:20:36;;;;;;;7.30;6.60;;;;;;;23.20;43.06;95745.84;6012272;28;109167;-60
2023/10/06 11:23:43;;;;;;;7.50;6.80;;;;;;;23.21;42.81;95742.09;6014012;28;109983;-61
2023/10/06 11:26:47;;;;;;;7.88;7.18;;;;;;;23.18;43.10;95745.31;6018601;28;108929;-61
2023/10/06 11:29:52;;;;;;;8.70;7.30;;;;;;;23.18;42.65;95744.53;6015948;28;109028;-61
2023/10/06 11:32:56;;;;;;;7.97;7.18;;;;;;;23.20;42.51;95739.72;6008116;28;108776;-61
2023/10/06 11:36:01;;;;;;;8.10;7.40;;;;;;;23.18;42.25;95737.31;6018490;28;109388;-60
2023/10/06 11:39:06;;;;;;;7.70;7.00;;;;;;;23.18;42.75;95734.66;6016874;28;109378;-60
2023/10/06 11:42:30;;;;;;;7.68;6.88;;;;;;;23.19;42.47;95743.47;6018192;28;108986;-60
2023/10/06 11:45:36;;;;;;;7.25;6.55;;;;;;;23.17;42.60;95743.75;6008049;28;108908;-60
2023/10/06 11:48:40;;;;;;;7.70;7.00;;;;;;;23.18;42.64;95739.97;6016876;28;109175;-60
2023/10/06 11:51:43;;;;;;;7.60;6.90;;;;;;;23.17;42.00;95735.72;6018264;28;109020;-60
2023/10/06 11:54:47;;;;;;;7.95;7.15;;;;;;;23.17;42.45;95740.28;6012875;28;108975;-60
2023/10/06 11:57:51;;;;;;;7.75;7.00;;;;;;;23.24;42.39;95744.16;6013880;28;109026;-60
2023/10/06 12:00:56;;;;;;;8.07;7.27;;;;;;;23.22;42.41;95751.69;6016098;28;108979;-60
2023/10/06 12:04:00;;;;;;;8.18;7.30;;;;;;;23.27;42.05;95745.44;6017976;28;108918;-59
2023/10/06 12:07:08;;;;;;;7.80;7.10;;;;;;;23.26;42.67;95744.66;6007642;28;122981;-60
2023/10/06 12:10:12;;;;;;;8.20;7.40;;;;;;;23.22;42.41;95745.56;6016369;28;109164;-60
2023/10/06 12:13:17;;;;;;;7.50;6.80;;;;;;;23.21;42.37;95743.97;6018010;28;108970;-60
2023/10/06 12:16:21;;;;;;;7.85;7.15;;;;;;;23.17;42.11;95745.63;6017990;29;108984;-59
2023/10/06 12:19:24;;;;;;;8.27;7.47;;;;;;;23.17;42.25;95745.63;6005508;28;109569;-59
2023/10/06 12:22:28;;;;;;;7.90;7.10;;;;;;;23.17;41.95;95746.41;6017890;28;109027;-59
2023/10/06 12:25:43;;;;;;;7.40;6.70;;;;;;;23.15;41.73;95745.91;6018003;28;108906;-59
2023/10/06 12:28:48;;;;;;;7.30;6.60;;;;;;;23.14;41.93;95744.34;6010738;28;108942;-59
2023/10/06 12:31:52;;;;;;;7.15;6.55;;;;;;;23.13;41.79;95742.75;6012139;28;111655;-59
2023/10/06 12:34:56;;;;;;;7.13;6.53;;;;;;;23.13;42.15;95741.97;6017156;28;109181;-59
2023/10/06 12:38:01;;;;;;;7.85;6.80;;;;;;;23.13;41.75;95741.97;6016379;28;109125;-58
2023/10/06 12:41:07;;;;;;;7.93;6.78;;;;;;;23.13;42.12;95737.41;6006380;29;108976;-59
2023/10/06 12:44:10;;;;;;;6.93;6.33;;;;;;;23.11;41.72;95742.25;6017564;28;109193;-60
2023/10/06 12:47:15;;;;;;;6.60;6.00;;;;;;;23.12;41.62;95738.50;6017322;28;108993;-56
2023/10/06 12:50:21;;;;;;;6.80;6.10;;;;;;;23.10;41.75;95737.22;6015111;28;109129;-56
2023/10/06 12:53:24;;;;;;;7.10;6.40;;;;;;;23.11;41.55;95742.25;6006603;28;108855;-56
2023/10/06 12:56:28;;;;;;;6.50;5.90;;;;;;;23.08;41.36;95740.19;6017071;28;109031;-56
2023/10/06 12:59:32;;;;;;;6.50;5.90;;;;;;;23.10;41.24;95740.69;6015282;28;109090;-56
2023/10/06 13:02:37;;;;;;;6.75;6.05;;;;;;;23.08;40.95;95736.72;6011540;28;108957;-56
2023/10/06 13:05:41;;;;;;;6.37;5.70;;;;;;;23.08;40.80;95737.53;6011587;28;108995;-56
2023/10/06 13:08:44;;;;;;;6.80;6.10;;;;;;;23.08;40.99;95732.19;6015377;28;108927;-57
2023/10/06 13:11:47;;;;;;;6.35;5.70;;;;;;;23.11;41.12;95734.25;6016580;28;109084;-57
2023/10/06 13:14:51;;;;;;;6.28;5.68;;;;;;;23.16;40.26;95726.13;6007290;29;110273;-56
2023/10/06 13:17:56;;;;;;;6.78;5.70;;;;;;;23.14;40.66;95733.66;6015984;28;108953;-57
2023/10/06 13:20:59;;;;;;;5.90;5.30;;;;;;;23.10;40.63;95730.00;6015220;28;109012;-56
2023/10/06 13:24:05;;;;;;;6.90;5.60;;;;;;;23.12;40.70;95721.69;6016813;28;108876;-56
2023/10/06 13:27:10;;;;;;;6.30;5.70;;;;;;;23.11;40.71;95725.44;6006058;28;108909;-56
2023/10/06 13:30:14;;;;;;;6.00;5.03;;;;;;;23.18;40.30;95715.94;6014777;29;108876;-56
2023/10/06 13:33:19;;;;;;;6.15;5.55;;;;;;;23.20;40.38;95719.16;6015468;28;108978;-57
2023/10/06 13:36:22;;;;;;;6.20;5.60;;;;;;;23.21;40.71;95715.38;6015545;28;108941;-57
2023/10/06 13:39:26;;;;;;;6.20;5.60;;;;;;;23.23;40.32;95713.22;6006324;28;112054;-55
2023/10/06 13:42:29;;;;;;;6.20;5.60;;;;;;;23.20;40.58;95713.81;6016167;28;109066;-56
2023/10/06 13:45:32;;;;;;;7.13;5.78;;;;;;;23.14;40.55;95696.28;6016038;28;108866;-56
2023/10/06 13:48:37;;;;;;;6.50;5.80;;;;;;;23.22;40.68;95710.84;6004071;28;109065;-57
2023/10/06 13:51:41;;;;;;;6.37;5.77;;;;;;;23.23;40.36;95710.53;6015171;28;108983;-57
2023/10/06 13:54:44;;;;;;;6.10;5.50;;;;;;;23.20;40.11;95705.00;6015948;28;109006;-57
2023/10/06 13:57:51;;;;;;;6.30;5.40;;;;;;;23.16;40.58;95702.13;6015744;28;109028;-59
2023/10/06 14:00:58;;;;;;;6.10;5.50;;;;;;;23.15;40.17;95703.19;6004324;29;110107;-56
2023/10/06 14:04:03;;;;;;;6.20;5.60;;;;;;;23.15;40.34;95708.53;6014711;28;109039;-57
2023/10/06 14:07:11;;;;;;;5.70;5.20;;;;;;;23.07;40.37;95697.78;6015907;28;108934;-57
2023/10/06 14:10:16;;;;;;;5.82;5.22;;;;;;;23.09;40.52;95711.63;6014384;28;108767;-57
2023/10/06 14:13:24;;;;;;;5.40;4.90;;;;;;;23.00;40.21;95696.25;6005475;29;108877;-56
2023/10/06 14:16:28;;;;;;;5.80;5.20;;;;;;;23.05;40.62;95706.09;6015404;28;108967;-56